Chicopee River @ Indian Orchard, Ma

Chicopee River at Indian Orchard
 Total Drainage Area: 688 sq. miles 
 Drainage Area Controlled by Corps Dams: 63 sq. miles (9%) 
 Warning Flow/Stage: 6,520 cfs / 10.0 feet 
 Flood Flow/Stage: 10,200 cfs / 12.0 feet 
Date Time
(Eastern)
Stage
(ft)
Flow
(cfs)
CSM
(cfs / sq. mi.)
Jun-25 12:30 am 5.33 874 1.3
Jun-24 11:30 pm 5.34 882 1.3
Jun-24 10:30 pm 5.34 882 1.3
Jun-24 09:30 pm 5.34 882 1.3
Jun-24 08:30 pm 5.34 882 1.3
Jun-24 07:30 pm 5.32 866 1.3
Jun-24 06:30 pm 5.30 851 1.2
Jun-24 05:30 pm 5.30 851 1.2
Jun-24 04:30 pm 5.30 851 1.2
Jun-24 03:30 pm 5.33 874 1.3
Jun-24 02:30 pm 5.37 906 1.3
Jun-24 01:30 pm 5.41 939 1.4
Jun-24 12:30 pm 5.44 963 1.4
Jun-24 11:30 am 5.44 963 1.4
Jun-24 10:30 am 5.41 939 1.4
Jun-24 09:30 am 5.40 930 1.4
Jun-24 08:30 am 5.41 939 1.4
Jun-24 07:30 am 5.43 955 1.4
Jun-24 06:30 am 5.45 972 1.4
Jun-24 05:30 am 5.47 989 1.4
Jun-24 04:30 am 5.50 1,015 1.5
Jun-24 03:30 am 5.53 1,041 1.5
Jun-24 02:30 am 5.56 1,067 1.6
Jun-24 01:30 am 5.58 1,085 1.6
Jun-24 12:30 am 5.56 1,067 1.6
Report Generated June 25, 2024 01:06 am